sensor_id;sensor_type;location;lat;lon;timestamp;pressure;altitude;pressure_sealevel;temperature;humidity
52719;BME280;38616;42.140;24.760;2022-07-06T00:01:40;99439.00;;;26.11;40.86
52719;BME280;38616;42.140;24.760;2022-07-06T00:04:06;99439.06;;;26.19;40.65
52719;BME280;38616;42.140;24.760;2022-07-06T00:06:32;99445.34;;;26.08;41.13
52719;BME280;38616;42.140;24.760;2022-07-06T00:08:58;99447.78;;;26.14;40.96
52719;BME280;38616;42.140;24.760;2022-07-06T00:11:23;99433.56;;;26.33;40.39
52719;BME280;38616;42.140;24.760;2022-07-06T00:13:50;99431.81;;;26.07;41.49
52719;BME280;38616;42.140;24.760;2022-07-06T00:16:16;99427.53;;;26.17;41.94
52719;BME280;38616;42.140;24.760;2022-07-06T00:18:41;99427.84;;;26.11;42.39
52719;BME280;38616;42.140;24.760;2022-07-06T00:21:07;99430.25;;;26.13;42.83
52719;BME280;38616;42.140;24.760;2022-07-06T00:23:32;99432.03;;;25.76;44.13
52719;BME280;38616;42.140;24.760;2022-07-06T00:25:58;99427.97;;;25.59;45.00
52719;BME280;38616;42.140;24.760;2022-07-06T00:28:23;99423.44;;;25.44;45.28
52719;BME280;38616;42.140;24.760;2022-07-06T00:30:49;99420.56;;;24.84;46.97
52719;BME280;38616;42.140;24.760;2022-07-06T00:33:14;99420.28;;;24.59;47.28
52719;BME280;38616;42.140;24.760;2022-07-06T00:35:40;99406.78;;;24.23;47.99
52719;BME280;38616;42.140;24.760;2022-07-06T00:38:05;99402.66;;;24.10;48.83
52719;BME280;38616;42.140;24.760;2022-07-06T00:40:31;99400.38;;;23.88;49.47
52719;BME280;38616;42.140;24.760;2022-07-06T00:42:56;99403.94;;;24.16;48.69
52719;BME280;38616;42.140;24.760;2022-07-06T00:45:22;99394.66;;;24.04;49.11
52719;BME280;38616;42.140;24.760;2022-07-06T00:47:48;99390.38;;;24.11;49.13
52719;BME280;38616;42.140;24.760;2022-07-06T00:50:16;99393.78;;;23.70;50.19
52719;BME280;38616;42.140;24.760;2022-07-06T00:52:53;99398.06;;;23.94;49.30
52719;BME280;38616;42.140;24.760;2022-07-06T00:55:21;99396.97;;;23.72;49.81
52719;BME280;38616;42.140;24.760;2022-07-06T00:57:47;99389.16;;;23.78;49.65
52719;BME280;38616;42.140;24.760;2022-07-06T01:00:15;99382.38;;;24.02;49.31
52719;BME280;38616;42.140;24.760;2022-07-06T01:02:42;99375.31;;;24.08;49.36
52719;BME280;38616;42.140;24.760;2022-07-06T01:05:10;99365.41;;;24.45;48.42
52719;BME280;38616;42.140;24.760;2022-07-06T01:07:36;99361.41;;;24.42;48.09
52719;BME280;38616;42.140;24.760;2022-07-06T01:10:03;99354.97;;;24.34;48.26
52719;BME280;38616;42.140;24.760;2022-07-06T01:12:29;99350.38;;;24.49;47.68
52719;BME280;38616;42.140;24.760;2022-07-06T01:14:54;99342.25;;;24.68;47.16
52719;BME280;38616;42.140;24.760;2022-07-06T01:17:20;99334.19;;;24.55;47.40
52719;BME280;38616;42.140;24.760;2022-07-06T01:19:45;99318.91;;;24.76;46.83
52719;BME280;38616;42.140;24.760;2022-07-06T01:22:11;99328.06;;;24.76;46.65
52719;BME280;38616;42.140;24.760;2022-07-06T01:24:37;99323.94;;;24.63;46.69
52719;BME280;38616;42.140;24.760;2022-07-06T01:27:06;99324.53;;;24.83;46.59
52719;BME280;38616;42.140;24.760;2022-07-06T01:29:33;99315.13;;;24.95;46.28
52719;BME280;38616;42.140;24.760;2022-07-06T01:31:58;99305.84;;;24.80;46.32
52719;BME280;38616;42.140;24.760;2022-07-06T01:34:24;99307.91;;;24.90;46.07
52719;BME280;38616;42.140;24.760;2022-07-06T01:36:50;99309.13;;;24.48;46.66
52719;BME280;38616;42.140;24.760;2022-07-06T01:39:15;99306.53;;;24.25;47.17
52719;BME280;38616;42.140;24.760;2022-07-06T01:41:41;99299.50;;;24.38;46.73
52719;BME280;38616;42.140;24.760;2022-07-06T01:44:06;99297.25;;;24.51;46.33
52719;BME280;38616;42.140;24.760;2022-07-06T01:46:33;99298.81;;;24.93;45.61
52719;BME280;38616;42.140;24.760;2022-07-06T01:48:58;99293.56;;;24.81;45.47
52719;BME280;38616;42.140;24.760;2022-07-06T01:51:24;99280.84;;;24.76;46.06
52719;BME280;38616;42.140;24.760;2022-07-06T01:53:50;99282.53;;;24.92;45.32
52719;BME280;38616;42.140;24.760;2022-07-06T01:56:16;99282.84;;;25.39;44.70
52719;BME280;38616;42.140;24.760;2022-07-06T01:58:46;99283.75;;;24.94;44.96
52719;BME280;38616;42.140;24.760;2022-07-06T02:01:15;99274.16;;;24.88;44.13
52719;BME280;38616;42.140;24.760;2022-07-06T02:03:41;99280.91;;;24.87;44.73
52719;BME280;38616;42.140;24.760;2022-07-06T02:06:07;99272.94;;;24.82;45.24
52719;BME280;38616;42.140;24.760;2022-07-06T02:08:34;99270.03;;;24.68;45.96
52719;BME280;38616;42.140;24.760;2022-07-06T02:10:59;99273.53;;;25.10;44.70
52719;BME280;38616;42.140;24.760;2022-07-06T02:13:25;99268.31;;;25.01;45.04
52719;BME280;38616;42.140;24.760;2022-07-06T02:15:51;99263.22;;;25.10;44.92
52719;BME280;38616;42.140;24.760;2022-07-06T02:18:16;99265.03;;;25.47;44.12
52719;BME280;38616;42.140;24.760;2022-07-06T02:20:42;99262.56;;;25.35;44.72
52719;BME280;38616;42.140;24.760;2022-07-06T02:23:08;99266.03;;;25.14;45.47
52719;BME280;38616;42.140;24.760;2022-07-06T02:25:33;99260.47;;;25.17;45.48
52719;BME280;38616;42.140;24.760;2022-07-06T02:27:59;99260.28;;;24.85;46.67
52719;BME280;38616;42.140;24.760;2022-07-06T02:30:24;99265.66;;;24.67;47.09
52719;BME280;38616;42.140;24.760;2022-07-06T02:32:50;99258.72;;;24.94;46.31
52719;BME280;38616;42.140;24.760;2022-07-06T02:35:15;99267.59;;;25.11;46.19
52719;BME280;38616;42.140;24.760;2022-07-06T02:37:41;99266.06;;;25.25;45.68
52719;BME280;38616;42.140;24.760;2022-07-06T02:40:06;99272.47;;;25.29;45.79
52719;BME280;38616;42.140;24.760;2022-07-06T02:42:32;99263.72;;;25.27;45.93
52719;BME280;38616;42.140;24.760;2022-07-06T02:44:58;99278.00;;;25.29;45.93
52719;BME280;38616;42.140;24.760;2022-07-06T02:47:23;99283.63;;;25.36;45.66
52719;BME280;38616;42.140;24.760;2022-07-06T02:49:49;99288.69;;;25.19;46.23
52719;BME280;38616;42.140;24.760;2022-07-06T02:52:14;99285.28;;;25.44;45.60
52719;BME280;38616;42.140;24.760;2022-07-06T02:54:39;99286.31;;;25.21;46.01
52719;BME280;38616;42.140;24.760;2022-07-06T02:57:05;99277.88;;;25.03;46.33
52719;BME280;38616;42.140;24.760;2022-07-06T02:59:30;99285.72;;;24.94;46.78
52719;BME280;38616;42.140;24.760;2022-07-06T03:01:56;99289.00;;;25.07;46.81
52719;BME280;38616;42.140;24.760;2022-07-06T03:04:21;99287.44;;;25.13;46.44
52719;BME280;38616;42.140;24.760;2022-07-06T03:06:47;99288.25;;;25.14;46.50
52719;BME280;38616;42.140;24.760;2022-07-06T03:09:12;99301.75;;;25.15;46.58
52719;BME280;38616;42.140;24.760;2022-07-06T03:11:38;99302.53;;;25.12;47.02
52719;BME280;38616;42.140;24.760;2022-07-06T03:14:04;99300.47;;;25.02;46.89
52719;BME280;38616;42.140;24.760;2022-07-06T03:16:30;99306.47;;;25.07;47.19
52719;BME280;38616;42.140;24.760;2022-07-06T03:18:55;99305.97;;;24.94;47.14
52719;BME280;38616;42.140;24.760;2022-07-06T03:21:21;99296.06;;;24.97;47.32
52719;BME280;38616;42.140;24.760;2022-07-06T03:23:47;99307.66;;;25.10;46.75
52719;BME280;38616;42.140;24.760;2022-07-06T03:26:12;99307.25;;;25.08;46.86
52719;BME280;38616;42.140;24.760;2022-07-06T03:28:37;99299.72;;;25.08;46.50
52719;BME280;38616;42.140;24.760;2022-07-06T03:31:03;99313.31;;;25.25;46.24
52719;BME280;38616;42.140;24.760;2022-07-06T03:33:28;99314.00;;;25.07;46.78
52719;BME280;38616;42.140;24.760;2022-07-06T03:35:54;99316.94;;;25.29;46.21
52719;BME280;38616;42.140;24.760;2022-07-06T03:38:19;99321.25;;;25.22;46.41
52719;BME280;38616;42.140;24.760;2022-07-06T03:40:45;99320.44;;;25.18;46.81
52719;BME280;38616;42.140;24.760;2022-07-06T03:43:10;99319.47;;;25.48;46.08
52719;BME280;38616;42.140;24.760;2022-07-06T03:45:35;99320.13;;;25.31;46.27
52719;BME280;38616;42.140;24.760;2022-07-06T03:48:01;99324.94;;;25.41;46.13
52719;BME280;38616;42.140;24.760;2022-07-06T03:50:26;99318.66;;;25.44;45.79
52719;BME280;38616;42.140;24.760;2022-07-06T03:52:52;99319.44;;;25.45;46.08
52719;BME280;38616;42.140;24.760;2022-07-06T03:55:17;99324.28;;;25.59;45.78
52719;BME280;38616;42.140;24.760;2022-07-06T03:57:43;99336.19;;;25.63;45.98
52719;BME280;38616;42.140;24.760;2022-07-06T04:00:09;99324.69;;;25.61;45.70
52719;BME280;38616;42.140;24.760;2022-07-06T04:02:35;99331.13;;;25.16;46.47
52719;BME280;38616;42.140;24.760;2022-07-06T04:05:00;99324.31;;;25.06;47.13
52719;BME280;38616;42.140;24.760;2022-07-06T04:07:26;99325.41;;;24.94;48.09
52719;BME280;38616;42.140;24.760;2022-07-06T04:09:51;99323.09;;;24.59;49.65
52719;BME280;38616;42.140;24.760;2022-07-06T04:12:17;99322.28;;;24.17;51.82
52719;BME280;38616;42.140;24.760;2022-07-06T04:14:43;99315.59;;;24.22;52.15
52719;BME280;38616;42.140;24.760;2022-07-06T04:17:08;99318.47;;;24.29;52.12
52719;BME280;38616;42.140;24.760;2022-07-06T04:19:52;99329.78;;;24.13;53.24
52719;BME280;38616;42.140;24.760;2022-07-06T04:22:18;99331.94;;;24.30;53.15
52719;BME280;38616;42.140;24.760;2022-07-06T04:24:43;99329.78;;;24.13;54.30
52719;BME280;38616;42.140;24.760;2022-07-06T04:27:09;99341.59;;;24.44;53.62
52719;BME280;38616;42.140;24.760;2022-07-06T04:29:34;99339.31;;;24.53;54.06
52719;BME280;38616;42.140;24.760;2022-07-06T04:32:00;99338.41;;;24.42;54.57
52719;BME280;38616;42.140;24.760;2022-07-06T04:34:26;99334.56;;;24.16;55.05
52719;BME280;38616;42.140;24.760;2022-07-06T04:36:51;99323.50;;;23.89;55.74
52719;BME280;38616;42.140;24.760;2022-07-06T04:39:17;99325.13;;;24.24;55.07
52719;BME280;38616;42.140;24.760;2022-07-06T04:41:43;99322.38;;;24.24;55.04
52719;BME280;38616;42.140;24.760;2022-07-06T04:44:08;99327.63;;;24.74;53.88
52719;BME280;38616;42.140;24.760;2022-07-06T04:46:33;99328.13;;;24.84;53.16
52719;BME280;38616;42.140;24.760;2022-07-06T04:48:59;99326.28;;;24.57;54.32
52719;BME280;38616;42.140;24.760;2022-07-06T04:51:25;99331.72;;;24.88;53.42
52719;BME280;38616;42.140;24.760;2022-07-06T04:53:50;99328.47;;;24.78;53.58
52719;BME280;38616;42.140;24.760;2022-07-06T04:56:15;99333.06;;;24.63;54.17
52719;BME280;38616;42.140;24.760;2022-07-06T04:58:41;99332.25;;;24.63;54.25
52719;BME280;38616;42.140;24.760;2022-07-06T05:01:06;99331.44;;;24.59;54.84
52719;BME280;38616;42.140;24.760;2022-07-06T05:03:33;99336.81;;;24.41;55.34
52719;BME280;38616;42.140;24.760;2022-07-06T05:06:04;99338.81;;;24.44;55.10
52719;BME280;38616;42.140;24.760;2022-07-06T05:08:30;99337.53;;;24.34;55.70
52719;BME280;38616;42.140;24.760;2022-07-06T05:10:55;99334.78;;;24.75;54.10
52719;BME280;38616;42.140;24.760;2022-07-06T05:13:21;99325.00;;;24.92;53.97
52719;BME280;38616;42.140;24.760;2022-07-06T05:15:46;99334.94;;;24.93;53.36
52719;BME280;38616;42.140;24.760;2022-07-06T05:18:12;99341.06;;;24.69;54.52
52719;BME280;38616;42.140;24.760;2022-07-06T05:20:37;99335.50;;;24.69;54.44
52719;BME280;38616;42.140;24.760;2022-07-06T05:23:02;99350.75;;;24.89;54.21
52719;BME280;38616;42.140;24.760;2022-07-06T05:25:28;99350.78;;;24.52;54.82
52719;BME280;38616;42.140;24.760;2022-07-06T05:27:53;99355.47;;;24.44;55.57
52719;BME280;38616;42.140;24.760;2022-07-06T05:30:19;99361.75;;;24.37;55.18
52719;BME280;38616;42.140;24.760;2022-07-06T05:32:44;99350.00;;;24.92;54.20
52719;BME280;38616;42.140;24.760;2022-07-06T05:35:10;99348.56;;;25.10;54.24
52719;BME280;38616;42.140;24.760;2022-07-06T05:37:35;99351.47;;;25.31;53.16
52719;BME280;38616;42.140;24.760;2022-07-06T05:40:01;99354.91;;;25.10;54.11
52719;BME280;38616;42.140;24.760;2022-07-06T05:42:26;99369.13;;;25.01;54.32
52719;BME280;38616;42.140;24.760;2022-07-06T05:44:56;99365.25;;;25.13;54.44
52719;BME280;38616;42.140;24.760;2022-07-06T05:47:22;99368.09;;;25.20;53.96
52719;BME280;38616;42.140;24.760;2022-07-06T05:50:06;99365.84;;;24.88;55.19
52719;BME280;38616;42.140;24.760;2022-07-06T05:52:42;99376.03;;;24.77;54.99
52719;BME280;38616;42.140;24.760;2022-07-06T05:55:11;99367.47;;;24.93;54.83
52719;BME280;38616;42.140;24.760;2022-07-06T05:57:38;99374.00;;;25.12;54.48
52719;BME280;38616;42.140;24.760;2022-07-06T06:00:04;99390.56;;;25.01;54.38
52719;BME280;38616;42.140;24.760;2022-07-06T06:02:41;99380.63;;;24.58;55.29
52719;BME280;38616;42.140;24.760;2022-07-06T06:05:09;99379.88;;;24.65;55.10
52719;BME280;38616;42.140;24.760;2022-07-06T06:07:35;99383.47;;;25.07;54.42
52719;BME280;38616;42.140;24.760;2022-07-06T06:10:03;99387.28;;;25.40;54.04
52719;BME280;38616;42.140;24.760;2022-07-06T06:12:28;99395.34;;;25.52;53.47
52719;BME280;38616;42.140;24.760;2022-07-06T06:14:54;99388.34;;;25.80;53.05
52719;BME280;38616;42.140;24.760;2022-07-06T06:17:19;99391.97;;;25.88;52.82
52719;BME280;38616;42.140;24.760;2022-07-06T06:19:45;99388.72;;;25.72;53.24
52719;BME280;38616;42.140;24.760;2022-07-06T06:22:10;99388.31;;;25.73;53.18
52719;BME280;38616;42.140;24.760;2022-07-06T06:24:35;99384.78;;;25.84;53.05
52719;BME280;38616;42.140;24.760;2022-07-06T06:27:01;99382.28;;;25.57;53.45
52719;BME280;38616;42.140;24.760;2022-07-06T06:29:26;99393.41;;;25.60;53.07
52719;BME280;38616;42.140;24.760;2022-07-06T06:31:52;99389.53;;;25.79;52.64
52719;BME280;38616;42.140;24.760;2022-07-06T06:34:17;99395.13;;;25.83;52.63
52719;BME280;38616;42.140;24.760;2022-07-06T06:36:43;99377.19;;;25.14;53.30
52719;BME280;38616;42.140;24.760;2022-07-06T06:39:08;99393.81;;;25.59;52.95
52719;BME280;38616;42.140;24.760;2022-07-06T06:41:33;99380.03;;;25.88;51.86
52719;BME280;38616;42.140;24.760;2022-07-06T06:43:59;99391.94;;;25.81;52.45
52719;BME280;38616;42.140;24.760;2022-07-06T06:46:24;99395.47;;;25.71;52.28
52719;BME280;38616;42.140;24.760;2022-07-06T06:48:50;99392.06;;;26.10;51.02
52719;BME280;38616;42.140;24.760;2022-07-06T06:51:15;99392.75;;;25.85;51.13
52719;BME280;38616;42.140;24.760;2022-07-06T06:53:41;99394.28;;;25.75;51.90
52719;BME280;38616;42.140;24.760;2022-07-06T06:56:06;99390.41;;;25.94;51.37
52719;BME280;38616;42.140;24.760;2022-07-06T06:58:32;99390.72;;;25.78;51.26
52719;BME280;38616;42.140;24.760;2022-07-06T07:00:58;99387.47;;;25.65;51.78
52719;BME280;38616;42.140;24.760;2022-07-06T07:03:23;99387.03;;;25.56;51.49
52719;BME280;38616;42.140;24.760;2022-07-06T07:05:48;99385.50;;;25.70;51.21
52719;BME280;38616;42.140;24.760;2022-07-06T07:08:14;99377.66;;;25.90;51.81
52719;BME280;38616;42.140;24.760;2022-07-06T07:10:39;99383.22;;;25.86;51.18
52719;BME280;38616;42.140;24.760;2022-07-06T07:13:05;99381.97;;;25.76;51.28
52719;BME280;38616;42.140;24.760;2022-07-06T07:15:30;99381.19;;;25.79;51.71
52719;BME280;38616;42.140;24.760;2022-07-06T07:17:56;99378.53;;;26.08;51.54
52719;BME280;38616;42.140;24.760;2022-07-06T07:20:21;99381.03;;;26.28;50.06
52719;BME280;38616;42.140;24.760;2022-07-06T07:22:47;99362.41;;;26.61;49.59
52719;BME280;38616;42.140;24.760;2022-07-06T07:25:12;99377.91;;;26.40;49.69
52719;BME280;38616;42.140;24.760;2022-07-06T07:27:38;99373.94;;;26.63;49.69
52719;BME280;38616;42.140;24.760;2022-07-06T07:30:04;99379.53;;;26.70;49.03
52719;BME280;38616;42.140;24.760;2022-07-06T07:32:29;99375.53;;;26.57;48.94
52719;BME280;38616;42.140;24.760;2022-07-06T07:34:54;99362.00;;;26.66;49.10
52719;BME280;38616;42.140;24.760;2022-07-06T07:37:20;99365.97;;;26.51;48.47
52719;BME280;38616;42.140;24.760;2022-07-06T07:39:45;99365.13;;;26.36;49.21
52719;BME280;38616;42.140;24.760;2022-07-06T07:42:11;99368.41;;;26.67;48.00
52719;BME280;38616;42.140;24.760;2022-07-06T07:44:36;99374.72;;;26.53;49.38
52719;BME280;38616;42.140;24.760;2022-07-06T07:47:04;99375.97;;;26.81;48.66
52719;BME280;38616;42.140;24.760;2022-07-06T07:49:29;99378.31;;;26.57;49.08
52719;BME280;38616;42.140;24.760;2022-07-06T07:51:55;99378.38;;;26.93;48.17
52719;BME280;38616;42.140;24.760;2022-07-06T07:54:20;99377.91;;;26.48;49.27
52719;BME280;38616;42.140;24.760;2022-07-06T07:56:45;99373.63;;;26.94;48.55
52719;BME280;38616;42.140;24.760;2022-07-06T07:59:11;99364.84;;;27.24;47.87
52719;BME280;38616;42.140;24.760;2022-07-06T08:01:37;99369.63;;;26.95;48.08
52719;BME280;38616;42.140;24.760;2022-07-06T08:04:02;99366.00;;;26.62;48.85
52719;BME280;38616;42.140;24.760;2022-07-06T08:06:38;99350.88;;;26.63;48.94
52719;BME280;38616;42.140;24.760;2022-07-06T08:09:04;99362.84;;;26.96;49.02
52719;BME280;38616;42.140;24.760;2022-07-06T08:11:33;99366.84;;;27.06;48.93
52719;BME280;38616;42.140;24.760;2022-07-06T08:13:58;99366.06;;;27.16;48.21
52719;BME280;38616;42.140;24.760;2022-07-06T08:16:24;99369.19;;;26.75;48.87
52719;BME280;38616;42.140;24.760;2022-07-06T08:18:49;99384.28;;;26.45;49.32
52719;BME280;38616;42.140;24.760;2022-07-06T08:21:15;99368.72;;;26.36;49.95
52719;BME280;38616;42.140;24.760;2022-07-06T08:23:40;99377.06;;;26.29;49.58
52719;BME280;38616;42.140;24.760;2022-07-06T08:26:06;99366.38;;;26.46;49.41
52719;BME280;38616;42.140;24.760;2022-07-06T08:28:31;99360.81;;;26.46;49.84
52719;BME280;38616;42.140;24.760;2022-07-06T08:30:57;99350.88;;;26.81;48.77
52719;BME280;38616;42.140;24.760;2022-07-06T08:33:23;99358.44;;;26.69;48.79
52719;BME280;38616;42.140;24.760;2022-07-06T08:35:48;99357.69;;;26.94;49.00
52719;BME280;38616;42.140;24.760;2022-07-06T08:38:14;99353.31;;;27.08;48.32
52719;BME280;38616;42.140;24.760;2022-07-06T08:40:40;99354.84;;;27.41;48.15
52719;BME280;38616;42.140;24.760;2022-07-06T08:43:07;99353.66;;;27.39;47.46
52719;BME280;38616;42.140;24.760;2022-07-06T08:45:34;99352.06;;;27.52;47.74
52719;BME280;38616;42.140;24.760;2022-07-06T08:48:05;99358.47;;;27.27;47.45
52719;BME280;38616;42.140;24.760;2022-07-06T08:50:32;99355.28;;;27.33;47.92
52719;BME280;38616;42.140;24.760;2022-07-06T08:52:58;99341.69;;;27.42;47.59
52719;BME280;38616;42.140;24.760;2022-07-06T08:55:25;99358.03;;;27.43;47.57
52719;BME280;38616;42.140;24.760;2022-07-06T08:57:54;99362.47;;;27.26;47.08
52719;BME280;38616;42.140;24.760;2022-07-06T09:00:20;99357.28;;;26.99;48.31
52719;BME280;38616;42.140;24.760;2022-07-06T09:02:45;99348.53;;;26.90;48.75
52719;BME280;38616;42.140;24.760;2022-07-06T09:05:14;99344.94;;;26.93;48.28
52719;BME280;38616;42.140;24.760;2022-07-06T09:07:42;99350.91;;;27.21;48.14
52719;BME280;38616;42.140;24.760;2022-07-06T09:10:08;99339.31;;;27.51;47.96
52719;BME280;38616;42.140;24.760;2022-07-06T09:12:34;99345.63;;;27.77;47.58
52719;BME280;38616;42.140;24.760;2022-07-06T09:14:59;99352.28;;;28.01;47.60
52719;BME280;38616;42.140;24.760;2022-07-06T09:17:28;99364.44;;;27.37;48.73
52719;BME280;38616;42.140;24.760;2022-07-06T09:19:55;99361.28;;;27.13;49.38
52719;BME280;38616;42.140;24.760;2022-07-06T09:22:32;99362.81;;;27.39;49.08
52719;BME280;38616;42.140;24.760;2022-07-06T09:25:06;99364.38;;;27.69;48.49
52719;BME280;38616;42.140;24.760;2022-07-06T09:27:37;99371.47;;;27.92;48.00
52719;BME280;38616;42.140;24.760;2022-07-06T09:30:03;99376.38;;;27.59;48.41
52719;BME280;38616;42.140;24.760;2022-07-06T09:32:28;99370.41;;;27.35;48.92
52719;BME280;38616;42.140;24.760;2022-07-06T09:34:54;99369.19;;;27.47;48.71
52719;BME280;38616;42.140;24.760;2022-07-06T09:37:22;99360.75;;;27.83;48.25
52719;BME280;38616;42.140;24.760;2022-07-06T09:39:49;99350.78;;;27.82;48.13
52719;BME280;38616;42.140;24.760;2022-07-06T09:42:14;99357.56;;;27.81;48.20
52719;BME280;38616;42.140;24.760;2022-07-06T09:44:41;99363.16;;;27.78;48.58
52719;BME280;38616;42.140;24.760;2022-07-06T09:47:09;99357.25;;;27.47;48.51
52719;BME280;38616;42.140;24.760;2022-07-06T09:49:35;99350.13;;;27.13;49.21
52719;BME280;38616;42.140;24.760;2022-07-06T09:52:03;99349.66;;;27.40;48.70
52719;BME280;38616;42.140;24.760;2022-07-06T09:54:29;99342.06;;;27.77;47.96
52719;BME280;38616;42.140;24.760;2022-07-06T09:56:57;99341.47;;;28.22;47.17
52719;BME280;38616;42.140;24.760;2022-07-06T09:59:28;99344.13;;;28.43;46.81
52719;BME280;38616;42.140;24.760;2022-07-06T10:01:55;99341.78;;;28.31;45.98
52719;BME280;38616;42.140;24.760;2022-07-06T10:04:23;99344.00;;;27.83;47.57
52719;BME280;38616;42.140;24.760;2022-07-06T10:06:49;99332.09;;;27.72;46.96
52719;BME280;38616;42.140;24.760;2022-07-06T10:09:15;99331.31;;;27.61;47.76
52719;BME280;38616;42.140;24.760;2022-07-06T10:11:53;99332.56;;;27.49;47.65
52719;BME280;38616;42.140;24.760;2022-07-06T10:14:27;99330.53;;;27.56;46.96
52719;BME280;38616;42.140;24.760;2022-07-06T10:16:58;99327.78;;;27.53;46.16
52719;BME280;38616;42.140;24.760;2022-07-06T10:19:25;99328.44;;;27.90;45.93
52719;BME280;38616;42.140;24.760;2022-07-06T10:21:51;99319.38;;;28.45;45.21
52719;BME280;38616;42.140;24.760;2022-07-06T10:24:19;99321.94;;;28.82;44.56
52719;BME280;38616;42.140;24.760;2022-07-06T10:26:45;99314.25;;;28.89;43.58
52719;BME280;38616;42.140;24.760;2022-07-06T10:29:11;99317.69;;;29.12;43.65
52719;BME280;38616;42.140;24.760;2022-07-06T10:31:42;99310.56;;;29.03;42.76
52719;BME280;38616;42.140;24.760;2022-07-06T10:34:10;99307.66;;;29.14;41.71
52719;BME280;38616;42.140;24.760;2022-07-06T10:36:41;99303.84;;;28.97;41.82
52719;BME280;38616;42.140;24.760;2022-07-06T10:39:07;99290.00;;;28.79;42.42
52719;BME280;38616;42.140;24.760;2022-07-06T10:41:51;99305.41;;;28.45;43.51
52719;BME280;38616;42.140;24.760;2022-07-06T10:44:20;99304.19;;;28.50;42.53
52719;BME280;38616;42.140;24.760;2022-07-06T10:47:05;99294.06;;;28.67;42.38
52719;BME280;38616;42.140;24.760;2022-07-06T10:49:30;99302.59;;;28.49;43.05
52719;BME280;38616;42.140;24.760;2022-07-06T10:51:56;99293.66;;;28.69;43.22
52719;BME280;38616;42.140;24.760;2022-07-06T10:54:22;99297.34;;;29.08;42.42
52719;BME280;38616;42.140;24.760;2022-07-06T10:56:49;99291.59;;;29.22;41.75
52719;BME280;38616;42.140;24.760;2022-07-06T10:59:20;99293.25;;;28.70;42.25
52719;BME280;38616;42.140;24.760;2022-07-06T11:02:17;99288.22;;;29.00;42.03
52719;BME280;38616;42.140;24.760;2022-07-06T11:04:47;99280.50;;;29.15;42.47
52719;BME280;38616;42.140;24.760;2022-07-06T11:07:15;99297.28;;;29.15;42.20
52719;BME280;38616;42.140;24.760;2022-07-06T11:09:42;99293.03;;;29.41;40.42
52719;BME280;38616;42.140;24.760;2022-07-06T11:12:18;99281.41;;;29.04;38.75
52719;BME280;38616;42.140;24.760;2022-07-06T11:14:45;99281.22;;;29.19;39.69
52719;BME280;38616;42.140;24.760;2022-07-06T11:17:12;99272.91;;;29.15;38.92
52719;BME280;38616;42.140;24.760;2022-07-06T11:19:38;99277.97;;;29.24;38.19
52719;BME280;38616;42.140;24.760;2022-07-06T11:22:08;99269.88;;;29.72;36.03
52719;BME280;38616;42.140;24.760;2022-07-06T11:24:37;99276.94;;;29.49;37.02
52719;BME280;38616;42.140;24.760;2022-07-06T11:27:03;99267.94;;;28.92;38.49
52719;BME280;38616;42.140;24.760;2022-07-06T11:29:29;99269.41;;;29.04;38.67
52719;BME280;38616;42.140;24.760;2022-07-06T11:31:59;99264.84;;;29.59;37.88
52719;BME280;38616;42.140;24.760;2022-07-06T11:34:30;99260.81;;;29.60;38.38
52719;BME280;38616;42.140;24.760;2022-07-06T11:37:02;99263.75;;;29.49;38.41
52719;BME280;38616;42.140;24.760;2022-07-06T11:39:29;99261.66;;;29.88;38.12
52719;BME280;38616;42.140;24.760;2022-07-06T11:41:56;99263.81;;;30.35;36.92
52719;BME280;38616;42.140;24.760;2022-07-06T11:44:22;99250.16;;;30.65;36.85
52719;BME280;38616;42.140;24.760;2022-07-06T11:46:47;99245.56;;;30.75;36.99
52719;BME280;38616;42.140;24.760;2022-07-06T11:49:17;99239.91;;;30.78;37.22
52719;BME280;38616;42.140;24.760;2022-07-06T11:51:44;99247.38;;;30.61;36.66
52719;BME280;38616;42.140;24.760;2022-07-06T11:54:12;99245.16;;;29.67;37.65
52719;BME280;38616;42.140;24.760;2022-07-06T11:56:48;99243.00;;;29.78;38.25
52719;BME280;38616;42.140;24.760;2022-07-06T11:59:15;99240.16;;;30.13;36.79
52719;BME280;38616;42.140;24.760;2022-07-06T12:01:41;99241.09;;;29.37;37.55
52719;BME280;38616;42.140;24.760;2022-07-06T12:04:10;99238.41;;;28.87;38.85
52719;BME280;38616;42.140;24.760;2022-07-06T12:06:36;99242.47;;;28.83;39.21
52719;BME280;38616;42.140;24.760;2022-07-06T12:09:02;99234.09;;;28.79;38.90
52719;BME280;38616;42.140;24.760;2022-07-06T12:11:31;99230.16;;;29.15;38.47
52719;BME280;38616;42.140;24.760;2022-07-06T12:14:02;99226.22;;;29.47;38.13
52719;BME280;38616;42.140;24.760;2022-07-06T12:16:34;99226.06;;;29.23;37.94
52719;BME280;38616;42.140;24.760;2022-07-06T12:19:01;99237.44;;;29.05;38.13
52719;BME280;38616;42.140;24.760;2022-07-06T12:21:27;99231.97;;;28.94;38.48
52719;BME280;38616;42.140;24.760;2022-07-06T12:23:54;99227.94;;;29.33;37.56
52719;BME280;38616;42.140;24.760;2022-07-06T12:26:22;99230.72;;;29.68;37.20
52719;BME280;38616;42.140;24.760;2022-07-06T12:29:04;99223.03;;;29.76;36.67
52719;BME280;38616;42.140;24.760;2022-07-06T12:31:39;99216.78;;;29.64;37.44
52719;BME280;38616;42.140;24.760;2022-07-06T12:34:13;99211.41;;;30.60;35.00
52719;BME280;38616;42.140;24.760;2022-07-06T12:36:45;99212.66;;;31.23;34.18
52719;BME280;38616;42.140;24.760;2022-07-06T12:39:13;99204.31;;;31.39;33.11
52719;BME280;38616;42.140;24.760;2022-07-06T12:41:42;99199.53;;;31.93;32.19
52719;BME280;38616;42.140;24.760;2022-07-06T12:44:09;99198.84;;;31.32;33.41
52719;BME280;38616;42.140;24.760;2022-07-06T12:46:39;99197.50;;;30.96;33.65
52719;BME280;38616;42.140;24.760;2022-07-06T12:49:21;99195.00;;;31.43;32.91